Time;durP1;ratioP1;P1;durP2;ratioP2;P2;SDS_P1;SDS_P2;PMS_P1;PMS_P2;Temp;Humidity;BMP_temperature;BMP_pressure;BME280_temperature;BME280_humidity;BME280_pressure;Samples;Min_cycle;Max_cycle;Signal;HPM_P1;HPM_P2
2022/04/19 00:05:14;;;;;;;9.60;6.90;;;;;;;;;;4911242;29;20054;-91
2022/04/19 00:07:41;;;;;;;11.15;6.95;;;;;;;;;;4879894;29;20040;-90
2022/04/19 00:13:45;;;;;;;10.88;7.15;;;;;;;;;;4906627;29;20042;-91
2022/04/19 00:16:21;;;;;;;9.52;7.45;;;;;;;;;;4913660;29;20044;-91
2022/04/19 00:18:47;;;;;;;11.00;7.75;;;;;;;;;;4876459;29;20127;-92
2022/04/19 00:21:13;;;;;;;9.48;7.47;;;;;;;;;;4874387;29;20056;-92
2022/04/19 00:23:39;;;;;;;13.05;7.53;;;;;;;;;;4910047;29;20076;-94
2022/04/19 00:26:05;;;;;;;13.60;7.15;;;;;;;;;;4893374;29;20054;-92
2022/04/19 00:28:47;;;;;;;9.73;7.28;;;;;;;;;;4877723;29;20082;-93
2022/04/19 00:34:22;;;;;;;10.93;7.30;;;;;;;;;;4904577;29;20048;-92
2022/04/19 00:36:48;;;;;;;9.07;6.68;;;;;;;;;;4891497;29;20040;-93
2022/04/19 00:39:14;;;;;;;9.60;6.38;;;;;;;;;;4885022;29;20043;-92
2022/04/19 00:41:40;;;;;;;9.55;6.22;;;;;;;;;;4893744;29;20032;-91
2022/04/19 00:44:26;;;;;;;11.85;6.80;;;;;;;;;;4892274;29;20048;-90
2022/04/19 00:46:52;;;;;;;9.52;6.22;;;;;;;;;;4924294;29;20051;-91
2022/04/19 00:49:18;;;;;;;9.23;6.80;;;;;;;;;;4878017;29;20036;-90
2022/04/19 00:51:45;;;;;;;7.88;6.30;;;;;;;;;;4912491;29;20056;-92
2022/04/19 00:57:46;;;;;;;8.93;6.20;;;;;;;;;;4811908;29;20078;-91
2022/04/19 01:04:05;;;;;;;11.10;6.20;;;;;;;;;;4828593;29;20070;-90
2022/04/19 01:06:37;;;;;;;12.32;6.43;;;;;;;;;;4812100;29;20495;-89
2022/04/19 01:09:25;;;;;;;10.32;6.70;;;;;;;;;;4824896;29;20056;-92
2022/04/19 01:15:32;;;;;;;9.43;7.05;;;;;;;;;;4830344;29;20154;-88
2022/04/19 01:18:02;;;;;;;;;;;;;;;;;;4790577;29;20054;-92
2022/04/19 01:23:51;;;;;;;8.70;6.38;;;;;;;;;;4805965;29;20057;-91
2022/04/19 01:26:21;;;;;;;9.35;6.35;;;;;;;;;;4826985;29;20049;-91
2022/04/19 01:28:57;;;;;;;8.32;6.78;;;;;;;;;;4880052;29;20083;-90
2022/04/19 01:31:42;;;;;;;9.57;6.40;;;;;;;;;;4917435;29;20086;-89
2022/04/19 01:34:12;;;;;;;10.00;6.35;;;;;;;;;;4887160;29;20059;-90
2022/04/19 01:36:39;;;;;;;8.85;6.60;;;;;;;;;;4887133;29;20570;-90
2022/04/19 01:39:14;;;;;;;9.60;7.45;;;;;;;;;;4903149;29;20028;-89
2022/04/19 01:45:23;;;;;;;9.90;6.47;;;;;;;;;;4902241;29;20075;-89
2022/04/19 01:47:49;;;;;;;7.80;6.28;;;;;;;;;;4900736;29;20060;-87
2022/04/19 01:50:41;;;;;;;8.73;6.32;;;;;;;;;;4887122;29;20410;-88
2022/04/19 01:53:40;;;;;;;10.52;7.30;;;;;;;;;;4899744;29;20098;-90
2022/04/19 01:56:07;;;;;;;10.00;7.18;;;;;;;;;;4917772;29;20047;-89
2022/04/19 01:58:33;;;;;;;10.88;7.70;;;;;;;;;;4902759;29;20055;-88
2022/04/19 02:00:59;;;;;;;10.52;7.43;;;;;;;;;;4872928;29;20043;-89
2022/04/19 02:03:25;;;;;;;10.57;7.18;;;;;;;;;;4886963;29;20524;-90
2022/04/19 02:05:51;;;;;;;11.32;7.18;;;;;;;;;;4875764;29;20044;-89
2022/04/19 02:11:52;;;;;;;11.18;7.20;;;;;;;;;;5014965;23;20046;-88
2022/04/19 02:14:21;;;;;;;9.77;7.10;;;;;;;;;;4888773;29;20062;-88
2022/04/19 02:16:47;;;;;;;10.95;7.03;;;;;;;;;;4889415;29;20051;-91
2022/04/19 02:19:13;;;;;;;10.52;7.88;;;;;;;;;;4922948;29;20040;-91
2022/04/19 02:21:48;;;;;;;10.23;7.82;;;;;;;;;;4889100;29;20075;-89
2022/04/19 02:24:19;;;;;;;10.63;8.00;;;;;;;;;;4904168;29;20859;-89
2022/04/19 02:26:48;;;;;;;11.82;8.02;;;;;;;;;;4891555;29;20087;-92
2022/04/19 02:29:25;;;;;;;13.43;8.07;;;;;;;;;;4908153;29;20468;-89
2022/04/19 02:32:16;;;;;;;11.73;7.90;;;;;;;;;;4922247;29;20103;-88
2022/04/19 02:35:18;;;;;;;12.52;7.80;;;;;;;;;;4901315;29;20559;-88
2022/04/19 02:37:58;;;;;;;12.75;7.45;;;;;;;;;;4902436;29;20079;-89
2022/04/19 02:40:51;;;;;;;11.45;7.65;;;;;;;;;;4903620;29;20551;-88
2022/04/19 02:43:17;;;;;;;13.20;7.45;;;;;;;;;;4900720;29;20569;-90
2022/04/19 02:46:14;;;;;;;11.63;7.65;;;;;;;;;;4887169;29;20048;-90
2022/04/19 02:52:07;;;;;;;12.40;8.30;;;;;;;;;;4903016;29;20131;-91
2022/04/19 02:57:58;;;;;;;12.35;8.05;;;;;;;;;;4900182;29;20054;-91
2022/04/19 03:00:24;;;;;;;14.32;8.07;;;;;;;;;;4886507;29;20115;-91
2022/04/19 03:02:51;;;;;;;15.82;8.20;;;;;;;;;;4885906;29;20141;-89
2022/04/19 03:08:40;;;;;;;12.93;8.55;;;;;;;;;;4900954;29;20613;-91
2022/04/19 03:11:15;;;;;;;11.68;7.80;;;;;;;;;;4902605;29;20064;-90
2022/04/19 03:13:43;;;;;;;15.48;8.07;;;;;;;;;;4901811;29;20464;-90
2022/04/19 03:16:13;;;;;;;14.35;8.07;;;;;;;;;;4905232;29;20083;-89
2022/04/19 03:19:13;;;;;;;14.35;8.60;;;;;;;;;;4867111;29;20139;-91
2022/04/19 03:31:16;;;;;;;15.65;8.98;;;;;;;;;;4859795;23;20112;-93
2022/04/19 03:33:48;;;;;;;14.05;8.80;;;;;;;;;;4875606;29;20058;-91
2022/04/19 03:36:16;;;;;;;14.18;8.40;;;;;;;;;;4896352;29;20747;-94
2022/04/19 03:38:45;;;;;;;13.07;8.80;;;;;;;;;;4903678;29;20052;-92
2022/04/19 03:41:17;;;;;;;15.68;8.40;;;;;;;;;;4882963;29;20044;-91
2022/04/19 03:47:16;;;;;;;18.63;8.65;;;;;;;;;;4937839;29;20107;-94
2022/04/19 03:59:34;;;;;;;13.25;8.32;;;;;;;;;;4871140;29;20089;-94
2022/04/19 04:02:21;;;;;;;12.70;8.00;;;;;;;;;;4853436;29;20041;-91
2022/04/19 04:04:47;;;;;;;13.05;8.23;;;;;;;;;;4858056;29;20052;-93
2022/04/19 04:23:18;;;;;;;13.20;8.00;;;;;;;;;;5113980;23;20276;-94
2022/04/19 04:29:24;;;;;;;14.63;8.55;;;;;;;;;;4906501;29;20051;-91
2022/04/19 04:31:59;;;;;;;14.25;8.40;;;;;;;;;;4904248;29;20047;-90
2022/04/19 04:34:47;;;;;;;13.80;8.57;;;;;;;;;;4909807;29;20047;-90
2022/04/19 04:37:45;;;;;;;19.00;9.05;;;;;;;;;;4888355;29;20102;-91
2022/04/19 04:43:31;;;;;;;15.57;8.43;;;;;;;;;;4882720;29;20067;-90
2022/04/19 05:00:05;;;;;;;14.50;8.70;;;8.40;99.90;;;;;;4812178;29;20089;-90
2022/04/19 05:10:09;;;;;;;16.60;8.52;;;;;;;;;;4923872;29;20033;-91
2022/04/19 05:12:35;;;;;;;15.45;9.38;;;;;;;;;;4919549;29;20066;-90
2022/04/19 05:18:54;;;;;;;13.43;8.45;;;;;;;;;;4884812;29;20167;-91
2022/04/19 05:25:08;;;;;;;18.27;9.57;;;;;;;;;;4902926;23;20238;-89
2022/04/19 05:35:13;;;;;;;13.35;8.80;;;;;;;;;;4866922;29;20141;-88
2022/04/19 05:37:39;;;;;;;17.65;9.23;;;;;;;;;;4832187;29;20083;-89
2022/04/19 05:40:06;;;;;;;19.65;9.52;;;;;;;;;;4843041;29;20057;-91
2022/04/19 05:42:32;;;;;;;19.52;9.18;;;;;;;;;;4861702;29;20068;-90
2022/04/19 05:44:58;;;;;;;16.67;10.25;;;;;;;;;;4844446;29;20052;-89
2022/04/19 05:47:24;;;;;;;15.82;9.23;;;;;;;;;;4841168;29;20056;-90
2022/04/19 05:50:27;;;;;;;20.77;9.57;;;;;;;;;;4842529;29;20513;-88
2022/04/19 05:52:53;;;;;;;14.95;9.40;;;;;;;;;;4849462;29;20052;-91
2022/04/19 05:55:22;;;;;;;15.95;9.52;;;;;;;;;;4826924;29;20202;-90
2022/04/19 06:00:19;;;;;;;21.83;9.05;;;;;;;;;;4926776;29;20148;-89
2022/04/19 06:06:33;;;;;;;16.50;8.57;;;;;;;;;;4928576;29;20423;-92
2022/04/19 06:11:29;;;;;;;18.58;8.85;;;;;;;;;;5095627;23;20143;-89
2022/04/19 06:14:00;;;;;;;17.25;9.35;;;;;;;;;;4892275;29;20594;-91
2022/04/19 06:16:26;;;;;;;12.27;8.88;;;;;;;;;;4869932;29;20170;-83
2022/04/19 06:18:52;;;;;;;14.25;8.55;;;;;;;;;;4900239;29;20197;-80
2022/04/19 06:21:18;;;;;;;12.73;8.68;;;;;;;;;;4899231;29;20122;-84
2022/04/19 06:23:44;;;;;;;19.88;9.25;;;;;;;;;;4892181;29;20044;-79
2022/04/19 06:26:10;;;;;;;16.98;8.43;;;;;;;;;;4907312;29;20054;-80
2022/04/19 06:28:36;;;;;;;12.65;8.07;;;;;;;;;;4877790;29;20473;-80
2022/04/19 06:31:02;;;;;;;14.77;9.00;;;;;;;;;;4869262;29;20480;-80
2022/04/19 06:33:28;;;;;;;14.32;9.05;;;;;;;;;;4879516;29;20131;-82
2022/04/19 06:35:54;;;;;;;13.82;9.02;;;;;;;;;;4886561;29;20050;-80
2022/04/19 06:38:20;;;;;;;16.67;8.68;;;;;;;;;;4881649;29;20063;-80
2022/04/19 06:40:46;;;;;;;17.98;8.45;;;;;;;;;;4881672;29;20056;-79
2022/04/19 06:43:12;;;;;;;14.68;8.13;;;;;;;;;;4884731;29;20053;-80
2022/04/19 06:45:39;;;;;;;14.15;8.40;;;;;;;;;;4882801;29;20123;-81
2022/04/19 06:48:05;;;;;;;14.20;8.65;;;;;;;;;;4901767;29;20842;-79
2022/04/19 06:50:31;;;;;;;12.32;8.43;;;;;;;;;;4865223;29;20526;-85
2022/04/19 06:52:58;;;;;;;15.23;8.55;;;;;;;;;;4879042;29;20040;-84
2022/04/19 06:55:24;;;;;;;12.65;7.97;;;;;;;;;;4882536;29;20052;-84
2022/04/19 06:57:50;;;;;;;13.20;7.93;;;;;;;;;;4877690;29;20757;-83
2022/04/19 07:00:17;;;;;;;12.90;8.43;;;;;;;;;;4870885;29;20059;-83
2022/04/19 07:02:44;;;;;;;10.80;8.18;;;;;;;;;;4893277;29;20060;-83
2022/04/19 07:05:10;;;;;;;12.25;7.63;;;;;;;;;;4900598;29;20055;-84
2022/04/19 07:07:39;;;;;;;14.38;7.88;;;;;;;;;;4898851;29;20429;-83
2022/04/19 07:10:06;;;;;;;11.52;6.95;;;;;;;;;;4900659;29;20059;-83
2022/04/19 07:12:32;;;;;;;13.93;7.60;;;;;;;;;;4900569;29;20055;-84
2022/04/19 07:14:58;;;;;;;14.60;8.13;;;;;;;;;;4881697;29;20075;-84
2022/04/19 07:17:24;;;;;;;16.83;7.43;;;;;;;;;;4901471;29;20052;-84
2022/04/19 07:28:10;;;;;;;10.95;7.53;;;;;;;;;;4900980;29;20055;-84
2022/04/19 07:30:37;;;;;;;14.63;7.10;;;;;;;;;;4879582;29;20045;-84
2022/04/19 07:33:05;;;;;;;11.05;6.13;;;;;;;;;;4875905;29;20091;-84
2022/04/19 07:35:31;;;;;;;8.20;6.15;;;;;;;;;;4876354;29;20055;-84
2022/04/19 07:37:57;;;;;;;8.43;4.20;;;;;;;;;;4898401;29;20058;-84
2022/04/19 07:40:24;;;;;;;6.32;4.10;;;;;;;;;;4902235;29;20611;-84
2022/04/19 07:42:50;;;;;;;6.90;4.38;;;;;;;;;;4862514;29;20136;-84
2022/04/19 07:45:16;;;;;;;7.15;4.55;;;;;;;;;;4898159;29;20041;-84
2022/04/19 07:47:43;;;;;;;7.65;4.40;;;;;;;;;;4887432;29;20036;-85
2022/04/19 07:50:09;;;;;;;4.97;4.30;;;;;;;;;;4871259;29;20473;-84
2022/04/19 07:52:35;;;;;;;5.50;4.15;;;;;;;;;;4888330;29;20119;-85
2022/04/19 07:55:01;;;;;;;5.28;4.20;;;;;;;;;;4877002;29;20062;-83
2022/04/19 07:57:28;;;;;;;6.95;3.63;;;;;;;;;;4890569;29;20052;-83
2022/04/19 07:59:54;;;;;;;6.95;3.70;;;;;;;;;;4892011;29;20044;-83
2022/04/19 08:02:21;;;;;;;4.55;3.22;;;;;;;;;;4885924;29;20601;-83
2022/04/19 08:04:47;;;;;;;7.28;3.28;;;;;;;;;;4871664;29;20040;-84
2022/04/19 08:07:13;;;;;;;4.25;2.72;;;;;;;;;;4870879;29;20044;-84
2022/04/19 08:09:40;;;;;;;3.90;3.50;;;;;;;;;;4873511;29;20084;-82
2022/04/19 08:12:08;;;;;;;4.97;3.15;;;;;;;;;;4889525;29;20039;-82
2022/04/19 08:14:34;;;;;;;5.10;3.08;;;;;;;;;;4909608;29;20244;-82
2022/04/19 08:17:00;;;;;;;6.32;3.35;;;;;;;;;;4883813;29;20080;-83
2022/04/19 08:19:26;;;;;;;4.55;3.38;;;;;;;;;;4907075;29;20052;-83
2022/04/19 08:21:53;;;;;;;5.90;3.10;;;;;;;;;;4909560;29;20481;-82
2022/04/19 08:24:19;;;;;;;4.70;2.78;;;;;;;;;;4916241;29;20091;-82
2022/04/19 08:26:45;;;;;;;4.40;2.65;;;;;;;;;;4918697;29;20036;-82
2022/04/19 08:29:11;;;;;;;3.58;2.55;;;;;;;;;;4915390;29;20464;-82
2022/04/19 08:31:37;;;;;;;2.83;2.13;;;;;;;;;;4915685;29;20048;-83
2022/04/19 08:34:03;;;;;;;3.88;2.33;;;;;;;;;;4900731;29;20485;-82
2022/04/19 08:36:30;;;;;;;2.58;2.10;;;;;;;;;;4922343;29;20058;-81
2022/04/19 08:38:56;;;;;;;3.28;1.83;;;;;;;;;;4916698;29;20044;-82
2022/04/19 08:41:22;;;;;;;7.20;2.03;;;;;;;;;;4921745;29;20452;-83
2022/04/19 08:43:52;;;;;;;3.53;1.90;;;;;;;;;;4908687;29;20130;-81
2022/04/19 08:46:18;;;;;;;2.20;1.55;;;;;;;;;;4888184;29;20527;-82
2022/04/19 08:48:44;;;;;;;6.28;1.58;;;;;;;;;;4896679;29;20054;-82
2022/04/19 08:51:12;;;;;;;4.25;1.70;;;;;;;;;;4886436;29;20040;-81
2022/04/19 08:59:08;;;;;;;1.90;1.70;;;;;;;;;;4919615;29;20138;-84
2022/04/19 09:01:35;;;;;;;2.40;2.00;;;;;;;;;;4894792;29;20059;-83
2022/04/19 09:04:04;;;;;;;1.88;1.50;;;;;;;;;;4917178;29;20059;-83
2022/04/19 09:06:50;;;;;;;6.70;1.85;;;;;;;;;;4901802;29;20063;-82
2022/04/19 09:09:20;;;;;;;3.88;1.90;;;;;;;;;;4895824;29;20119;-81
2022/04/19 09:11:46;;;;;;;2.90;2.00;;;;;;;;;;4916760;29;20036;-82
2022/04/19 09:14:12;;;;;;;2.85;1.88;;;;;;;;;;4893407;29;20075;-81
2022/04/19 09:16:38;;;;;;;3.53;2.05;;;;;;;;;;4882479;29;20049;-82
2022/04/19 09:19:08;;;;;;;2.38;1.77;;;;;;;;;;4895232;29;20048;-81
2022/04/19 09:21:37;;;;;;;2.92;2.20;;;;;;;;;;4888037;29;20067;-82
2022/04/19 09:24:17;;;;;;;4.43;2.35;;;;;;;;;;4889827;29;20052;-81
2022/04/19 09:26:44;;;;;;;3.05;2.10;;;;;;;;;;4891940;29;20584;-81
2022/04/19 09:29:23;;;;;;;4.20;2.40;;;;;;;;;;4876926;29;20071;-81
2022/04/19 09:31:51;;;;;;;5.88;2.45;;;;;;;;;;4865001;29;20096;-83
2022/04/19 09:34:24;;;;;;;3.15;2.30;;;;;;;;;;4864713;29;20513;-83
2022/04/19 09:36:54;;;;;;;2.65;2.45;;;;;;;;;;4885873;29;20056;-82
2022/04/19 09:39:29;;;;;;;2.65;2.38;;;;;;;;;;4876398;29;20548;-83
2022/04/19 09:42:15;;;;;;;4.38;2.67;;;;;;;;;;4880188;29;20053;-83
2022/04/19 09:44:42;;;;;;;6.35;2.60;;;;;;;;;;4860248;29;20172;-82
2022/04/19 09:47:12;;;;;;;3.00;2.72;;;;;;;;;;4895782;29;20055;-82
2022/04/19 09:49:41;;;;;;;5.22;2.60;;;;;;;;;;4879165;29;20144;-83
2022/04/19 09:52:07;;;;;;;3.55;2.75;;;;;;;;;;4872864;29;20378;-82
2022/04/19 09:54:34;;;;;;;3.85;2.70;;;;;;;;;;4889484;29;20048;-82
2022/04/19 09:57:07;;;;;;;3.70;2.88;;;;;;;;;;4895471;29;20036;-81
2022/04/19 09:59:36;;;;;;;3.45;2.90;;;;;;;;;;4907744;29;20068;-82
2022/04/19 10:10:18;;;;;;;6.53;3.78;;;;;;;;;;4879866;29;20055;-82
2022/04/19 10:12:44;;;;;;;6.63;3.45;;;;;;;;;;4878199;29;20063;-82
2022/04/19 10:15:11;;;;;;;4.15;3.55;;;;;;;;;;4903736;29;20087;-81
2022/04/19 10:17:37;;;;;;;5.35;3.85;;;;;;;;;;4896473;29;20147;-82
2022/04/19 10:20:04;;;;;;;6.07;3.60;;;;;;;;;;4904649;29;20131;-82
2022/04/19 10:22:33;;;;;;;3.38;2.92;;;;;;;;;;4910151;29;20922;-83
2022/04/19 10:25:02;;;;;;;3.92;2.53;;;;;;;;;;4912518;29;20056;-82
2022/04/19 10:27:33;;;;;;;6.70;3.20;;;;;;;;;;4911887;29;20052;-81
2022/04/19 10:30:01;;;;;;;3.13;2.63;;;;;;;;;;4912322;29;20062;-84
2022/04/19 10:32:33;;;;;;;3.60;3.28;;;;;;;;;;4911591;29;20059;-83
2022/04/19 10:35:00;;;;;;;4.55;3.13;;;;;;;;;;4901759;29;20523;-82
2022/04/19 10:37:27;;;;;;;6.78;3.25;;;;;;;;;;4892550;29;20127;-83
2022/04/19 10:39:59;;;;;;;4.28;3.50;;;;;;;;;;4878660;29;20100;-82
2022/04/19 10:42:32;;;;;;;5.40;3.42;;;;;;;;;;4880576;29;20045;-83
2022/04/19 10:44:58;;;;;;;7.63;3.70;;;;;;;;;;4883449;29;20044;-84
2022/04/19 10:47:26;;;;;;;5.88;3.42;;;;;;;;;;4863718;29;20124;-85
2022/04/19 10:50:06;;;;;;;4.53;3.45;;;;;;;;;;4888239;29;20118;-83
2022/04/19 10:52:42;;;;;;;8.55;3.22;;;;;;;;;;4889743;29;20123;-86
2022/04/19 10:55:12;;;;;;;6.25;3.20;;;;;;;;;;4890785;29;20049;-81
2022/04/19 10:58:09;;;;;;;5.18;3.63;;;;;;;;;;4870476;29;20044;-80
2022/04/19 11:00:35;;;;;;;;;;;;;;;;;;4885161;29;20045;-81
2022/04/19 11:03:02;;;;;;;8.77;3.50;;;;;;;;;;4880441;29;20140;-82
2022/04/19 11:05:36;;;;;;;4.90;3.20;;;;;;;;;;4873426;29;20075;-82
2022/04/19 11:08:01;;;;;;;;;;;;;;;;;;4881548;29;20107;-82
2022/04/19 11:10:37;;;;;;;4.30;3.30;;;;;;;;;;4877457;29;19915;-81
2022/04/19 11:13:03;;;;;;;31.08;7.00;;;;;;;;;;4890040;29;20128;-81
2022/04/19 11:15:37;;;;;;;10.82;3.58;;;;;;;;;;4873305;29;20044;-82
2022/04/19 11:18:26;;;;;;;252.77;45.25;;;;;;;;;;4890584;29;20139;-82
2022/04/19 11:20:53;;;;;;;54.17;11.13;;;;;;;;;;4859223;29;20126;-82
2022/04/19 11:23:20;;;;;;;5.78;3.60;;;;;;;;;;4888646;29;20040;-85
2022/04/19 11:25:47;;;;;;;5.53;3.53;;;;;;;;;;4869040;29;20045;-83
2022/04/19 11:28:31;;;;;;;7.45;3.90;;;;;;;;;;4896511;29;20502;-86
2022/04/19 11:30:57;;;;;;;8.68;3.72;;;;;;;;;;4900985;29;20596;-86
2022/04/19 11:33:28;;;;;;;4.13;3.15;;;;;;;;;;4881519;29;20063;-86
2022/04/19 11:36:00;;;;;;;6.07;3.60;;;;;;;;;;4894765;29;20061;-86
2022/04/19 11:38:26;;;;;;;4.30;3.50;;;;;;;;;;4906768;29;20390;-85
2022/04/19 11:46:45;;;;;;;8.68;3.35;;;;;;;;;;4891827;29;20051;-82
2022/04/19 11:49:17;;;;;;;3.63;3.08;;;;;;;;;;4893583;29;20048;-82
2022/04/19 11:51:54;;;;;;;3.90;3.22;;;;;;;;;;4905149;29;20048;-82
2022/04/19 11:54:27;;;;;;;3.78;2.97;;;;;;;;;;4889144;29;20063;-83
2022/04/19 11:56:57;;;;;;;9.00;3.00;;;;;;;;;;4887341;29;20048;-83
2022/04/19 11:59:31;;;;;;;5.18;3.00;;;;;;;;;;4887533;29;20059;-82
2022/04/19 12:01:57;;;;;;;4.95;2.92;;;;;;;;;;4890375;29;20482;-85
2022/04/19 12:04:24;;;;;;;5.70;2.70;;;;;;;;;;4887762;29;20215;-83
2022/04/19 12:06:54;;;;;;;4.43;2.90;;;;;;;;;;4888659;29;20159;-81
2022/04/19 12:09:21;;;;;;;3.58;2.97;;;;;;;;;;4885117;29;20048;-86
2022/04/19 12:11:48;;;;;;;5.68;2.85;;;;;;;;;;4872247;29;20048;-85
2022/04/19 12:14:30;;;;;;;4.78;2.95;;;;;;;;;;4872175;29;20048;-85
2022/04/19 12:16:59;;;;;;;5.97;3.22;;;;;;;;;;4869474;29;20045;-84
2022/04/19 12:19:52;;;;;;;3.22;2.72;;;;;;;;;;4893442;29;20063;-86
2022/04/19 12:22:25;;;;;;;3.85;2.72;;;;;;;;;;4855221;29;20075;-82
2022/04/19 12:24:55;;;;;;;4.55;4.05;;;;;;;;;;4871107;29;20465;-83
2022/04/19 12:27:39;;;;;;;6.70;3.05;;;;;;;;;;4872104;29;20077;-84
2022/04/19 12:30:12;;;;;;;3.88;3.00;;;;;;;;;;4880461;29;20053;-86
2022/04/19 12:33:02;;;;;;;6.23;2.97;;;;;;;;;;4890843;29;20458;-85
2022/04/19 12:35:34;;;;;;;4.63;2.80;;;;;;;;;;4889807;29;20167;-86
2022/04/19 12:38:04;;;;;;;6.22;3.85;;;;;;;;;;4877858;29;20055;-85
2022/04/19 12:40:30;;;;;;;3.45;3.15;;;;;;;;;;4903995;29;20062;-85
2022/04/19 12:42:56;;;;;;;6.50;3.45;;;;;;;;;;4887427;29;20053;-85
2022/04/19 12:45:22;;;;;;;5.70;3.60;;;;;;;;;;4890717;29;20051;-86
2022/04/19 12:47:49;;;;;;;5.65;3.75;;;;;;;;;;4889393;29;20650;-86
2022/04/19 12:50:16;;;;;;;4.93;3.40;;;;;;;;;;4875703;29;20417;-85
2022/04/19 12:52:43;;;;;;;5.07;2.90;;;;;;;;;;4873651;29;20049;-86
2022/04/19 12:55:09;;;;;;;6.32;3.60;;;;;;;;;;4890085;29;20048;-86
2022/04/19 12:57:38;;;;;;;5.35;3.10;;;;;;;;;;4890892;29;20055;-85
2022/04/19 13:00:05;;;;;;;3.17;2.83;;;;;;;;;;4855081;29;20037;-86
2022/04/19 13:02:31;;;;;;;6.63;3.05;;;;;;;;;;4889737;29;20045;-84
2022/04/19 13:04:57;;;;;;;4.50;2.85;;;;;;;;;;4896280;29;20032;-87
2022/04/19 13:13:00;;;;;;;5.50;2.80;;;;;;;;;;4886766;29;20060;-84
2022/04/19 13:15:26;;;;;;;5.38;3.38;;;;;;;;;;4873372;29;20060;-85
2022/04/19 13:17:53;;;;;;;3.75;3.20;;;;;;;;;;4889249;29;20045;-85
2022/04/19 13:20:19;;;;;;;4.47;3.33;;;;;;;;;;4892926;29;20070;-85
2022/04/19 13:22:45;;;;;;;7.38;3.53;;;;;;;;;;4892673;29;20054;-85
2022/04/19 13:25:15;;;;;;;5.55;3.28;;;;;;;;;;4877700;29;20367;-85
2022/04/19 13:27:44;;;;;;;3.90;3.10;;;;;;;;;;4893680;29;20049;-84
2022/04/19 13:30:10;;;;;;;4.72;3.35;;;;;;;;;;4892272;29;20051;-85
2022/04/19 13:32:38;;;;;;;6.45;3.30;;;;;;;;;;4894218;29;20056;-82
2022/04/19 13:35:04;;;;;;;5.80;3.40;;;;;;;;;;4906315;29;20044;-84
2022/04/19 13:40:15;;;;;;;5.70;3.60;;;;;;;;;;4910777;29;20766;-81
2022/04/19 13:42:41;;;;;;;4.40;3.40;;;;;;;;;;4911558;29;20036;-81
2022/04/19 13:45:08;;;;;;;5.25;3.10;;;;;;;;;;4910535;29;20052;-81
2022/04/19 13:47:34;;;;;;;3.50;2.63;;;;;;;;;;4910305;29;20052;-82
2022/04/19 13:50:00;;;;;;;5.20;3.10;;;;;;;;;;4892625;29;20445;-82
2022/04/19 13:52:26;;;;;;;4.35;3.72;;;;;;;;;;4909835;29;20449;-81
2022/04/19 13:54:53;;;;;;;5.93;2.97;;;;;;;;;;4863479;29;20505;-82
2022/04/19 13:57:19;;;;;;;3.35;2.85;;;;;;;;;;4910166;29;20052;-82
2022/04/19 13:59:47;;;;;;;4.45;2.90;;;;;;;;;;4911148;29;20044;-81
2022/04/19 14:02:15;;;;;;;5.20;2.65;;;;;;;;;;4860807;29;20056;-81
2022/04/19 14:04:41;;;;;;;4.57;3.00;;;;;;;;;;4893630;29;20060;-81
2022/04/19 14:07:08;;;;;;;4.75;3.60;;;;;;;;;;4868166;29;20052;-83
2022/04/19 14:09:34;;;;;;;4.30;3.40;;;;;;;;;;4892106;29;20057;-81
2022/04/19 14:12:02;;;;;;;5.18;4.00;;;;;;;;;;4893014;29;20512;-81
2022/04/19 14:14:28;;;;;;;4.00;3.60;;;;;;;;;;4888599;29;20060;-82
2022/04/19 14:16:54;;;;;;;4.13;3.63;;;;;;;;;;4911494;29;20063;-82
2022/04/19 14:19:22;;;;;;;4.55;3.63;;;;;;;;;;4876872;29;20086;-81
2022/04/19 14:21:49;;;;;;;4.50;3.78;;;;;;;;;;4878163;29;20120;-81
2022/04/19 14:24:15;;;;;;;6.10;3.85;;;;;;;;;;4912273;29;20126;-81
2022/04/19 14:26:41;;;;;;;5.32;3.90;;;;;;;;;;4893177;29;20052;-81
2022/04/19 14:34:37;;;;;;;10.98;4.82;;;;;;;;;;4894295;29;20048;-80
2022/04/19 14:37:03;;;;;;;7.72;5.15;;;;;;;;;;4909538;29;20102;-83
2022/04/19 14:39:30;;;;;;;7.15;5.10;;;;;;;;;;4909910;29;20051;-83
2022/04/19 14:41:57;;;;;;;6.30;5.32;;;;;;;;;;4906441;29;20045;-83
2022/04/19 14:44:23;;;;;;;7.07;4.95;;;;;;;;;;4893854;29;20087;-82
2022/04/19 14:46:49;;;;;;;9.65;5.68;;;;;;;;;;4911114;29;20052;-81
2022/04/19 14:49:16;;;;;;;7.32;5.35;;;;;;;;;;4909711;29;20056;-84
2022/04/19 14:54:33;;;;;;;7.10;5.57;;;;;;;;;;4910634;29;20130;-84
2022/04/19 14:56:59;;;;;;;9.52;5.50;;;;;;;;;;4913071;29;20084;-83
2022/04/19 14:59:25;;;;;;;7.38;5.43;;;;;;;;;;4910428;29;20504;-84
2022/04/19 15:01:51;;;;;;;7.63;5.47;;;;;;;;;;4897465;29;20559;-84
2022/04/19 15:04:17;;;;;;;9.85;5.50;;;;;;;;;;4898893;29;20054;-86
2022/04/19 15:06:43;;;;;;;6.35;5.20;;;;;;;;;;4893049;29;20445;-86
2022/04/19 15:09:10;;;;;;;6.90;5.63;;;;;;;;;;4876090;29;20572;-84
2022/04/19 15:11:37;;;;;;;9.38;5.20;;;;;;;;;;4893942;29;20064;-85
2022/04/19 15:14:08;;;;;;;9.73;5.80;;;;;;;;;;4901591;29;20047;-84
2022/04/19 15:16:34;;;;;;;8.43;5.30;;;;;;;;;;4902268;29;20062;-85
2022/04/19 15:19:00;;;;;;;6.97;5.20;;;;;;;;;;4907965;29;20079;-84
2022/04/19 15:21:26;;;;;;;9.52;5.28;;;;;;;;;;4907349;29;20051;-82
2022/04/19 15:23:52;;;;;;;8.32;5.10;;;;;;;;;;4875837;29;20052;-83
2022/04/19 15:26:18;;;;;;;7.65;5.57;;;;;;;;;;4894647;29;20489;-84
2022/04/19 15:28:44;;;;;;;5.95;5.13;;;;;;;;;;4902980;29;20082;-85
2022/04/19 15:31:13;;;;;;;6.07;5.38;;;;;;;;;;4909934;29;20048;-83
2022/04/19 15:33:39;;;;;;;6.90;5.40;;;;;;;;;;4888711;29;20123;-85
2022/04/19 15:36:06;;;;;;;6.47;5.60;;;;;;;;;;4907257;29;20059;-85
2022/04/19 15:38:32;;;;;;;8.73;7.07;;;;;;;;;;4891425;29;20067;-83
2022/04/19 15:40:58;;;;;;;10.93;7.45;;;;;;;;;;4908190;29;20051;-85
2022/04/19 15:43:24;;;;;;;11.40;7.47;;;;;;;;;;4898117;29;20048;-86
2022/04/19 15:45:50;;;;;;;9.93;6.95;;;;;;;;;;4890040;29;20047;-83
2022/04/19 15:48:17;;;;;;;10.73;7.78;;;;;;;;;;4909246;29;20115;-85
2022/04/19 15:50:52;;;;;;;10.23;8.18;;;;;;;;;;4880045;29;20242;-82
2022/04/19 15:53:18;;;;;;;12.38;8.27;;;;;;;;;;4885665;29;20044;-84
2022/04/19 15:55:45;;;;;;;12.48;8.20;;;;;;;;;;4891647;29;20210;-85
2022/04/19 15:58:11;;;;;;;12.38;8.25;;;;;;;;;;4908142;29;20051;-85
2022/04/19 16:00:38;;;;;;;11.77;8.75;;;;;;;;;;4890389;29;20077;-84
2022/04/19 16:03:04;;;;;;;10.82;8.48;;;;;;;;;;4890066;29;20139;-83
2022/04/19 16:05:31;;;;;;;12.52;8.98;;;;;;;;;;4888914;29;20032;-83
2022/04/19 16:07:57;;;;;;;15.90;8.48;;;;;;;;;;4893295;29;20040;-84
2022/04/19 16:10:31;;;;;;;12.32;8.50;;;;;;;;;;4908920;29;20079;-85
2022/04/19 16:12:57;;;;;;;;;;;;;;;;;;4893813;29;20405;-84
2022/04/19 16:15:25;;;;;;;16.25;9.07;;;;;;;;;;4905516;29;19927;-85
2022/04/19 16:23:42;;;;;;;16.85;8.70;;;;;;;;;;4839811;29;20081;-84
2022/04/19 16:26:14;;;;;;;11.93;8.10;;;;;;;;;;4823388;29;20069;-86
2022/04/19 16:28:42;;;;;;;17.13;8.63;;;;;;;;;;4863361;29;20056;-85
2022/04/19 16:31:08;;;;;;;10.27;8.35;;;;;;;;;;4912330;29;20147;-84
2022/04/19 16:33:39;;;;;;;11.27;7.82;;;;;;;;;;4920751;29;20129;-86
2022/04/19 16:36:05;;;;;;;9.60;7.18;;;;;;;;;;4889246;29;20077;-83
2022/04/19 16:38:31;;;;;;;11.23;7.97;;;;;;;;;;4889737;29;20040;-83
2022/04/19 16:40:57;;;;;;;9.25;6.85;;;;;;;;;;4910100;29;20043;-85
2022/04/19 16:43:23;;;;;;;9.75;6.97;;;;;;;;;;4907602;29;20131;-85
2022/04/19 16:45:49;;;;;;;10.32;7.38;;;;;;;;;;4919171;29;20093;-83
2022/04/19 16:48:16;;;;;;;12.10;7.55;;;;;;;;;;4909542;29;20464;-84
2022/04/19 16:50:42;;;;;;;9.07;7.05;;;;;;;;;;4910239;29;20131;-83
2022/04/19 16:53:08;;;;;;;10.02;6.25;;;;;;;;;;4904165;29;20119;-83
2022/04/19 16:55:35;;;;;;;10.35;6.97;;;;;;;;;;4886780;29;20036;-86
2022/04/19 16:58:01;;;;;;;9.10;6.32;;;;;;;;;;4919283;29;20440;-83
2022/04/19 17:00:28;;;;;;;8.77;5.82;;;;;;;;;;4921389;29;20516;-83
2022/04/19 17:05:40;;;;;;;9.25;5.82;;;;;;;;;;4925786;29;20063;-85
2022/04/19 17:08:06;;;;;;;12.77;5.97;;;;;;;;;;4915630;29;20077;-81
2022/04/19 17:10:32;;;;;;;7.72;5.05;;;;;;;;;;4922601;29;20036;-83
2022/04/19 17:13:02;;;;;;;9.98;5.72;;;;;;;;;;4903561;29;20028;-83
2022/04/19 17:15:28;;;;;;;7.57;5.28;;;;;;;;;;4897735;29;20268;-82
2022/04/19 17:17:54;;;;;;;10.65;5.22;;;;;;;;;;4917877;29;20050;-82
2022/04/19 17:20:20;;;;;;;10.55;4.50;;;;;;;;;;4919419;29;20044;-83
2022/04/19 17:22:46;;;;;;;8.40;4.68;;;;;;;;;;4897583;29;20051;-84
2022/04/19 17:25:13;;;;;;;8.75;5.13;;;;;;;;;;4914605;29;20922;-84
2022/04/19 17:27:39;;;;;;;9.10;4.72;;;;;;;;;;4908962;29;20043;-82
2022/04/19 17:30:06;;;;;;;5.95;4.43;;;;;;;;;;4912836;29;20438;-82
2022/04/19 17:32:33;;;;;;;9.75;4.65;;;;;;;;;;4903261;29;20072;-84
2022/04/19 17:35:00;;;;;;;10.88;4.47;;;;;;;;;;4897066;29;20108;-81
2022/04/19 17:37:29;;;;;;;12.75;5.82;;;;;;;;;;4901406;29;20492;-81
2022/04/19 17:39:55;;;;;;;13.32;5.75;;;;;;;;;;4916509;29;20052;-82
2022/04/19 17:42:21;;;;;;;14.73;5.07;;;;;;;;;;4907302;29;20047;-83
2022/04/19 17:44:47;;;;;;;10.52;5.22;;;;;;;;;;4911256;29;20051;-83
2022/04/19 17:47:17;;;;;;;9.75;5.15;;;;;;;;;;4902702;29;20036;-83
2022/04/19 17:58:03;;;;;;;10.90;5.28;;;;;;;;;;4911630;29;20123;-82
2022/04/19 18:00:30;;;;;;;9.38;5.15;;;;;;;;;;4915342;29;20071;-83
2022/04/19 18:02:57;;;;;;;10.02;5.72;;;;;;;;;;4913715;29;20532;-84
2022/04/19 18:05:23;;;;;;;12.07;6.25;;;;;;;;;;4905969;29;22031;-82